Text Box: All records at near 07:00 local time
Kleivo 1 weather for Aug 2009
Month no. 33
Obs.
Da.
Temp. Dew Point Precip. Wind
Speed
Wind gusts Cloud cover Press. Humidity Wind dir. Sunny OPT
01.08.2009 11,9 9,6 5,5 1,6   2 1013,8 86,0     67,2 %
02.08.2009 15,7 4,7 0,0 9,7   10 1008,0 48,0 45,0 1 90,0 %
03.08.2009 12,9 11,6 7,4 0,0   1 1009,7 92,0     66,0 %
04.08.2009 14,7 12,3 0,0 12,0   10 1016,1 86,0 202,5 1 85,0 %
05.08.2009 13,9 6,8 0,0 9,7   10 1017,2 62,0 45,0 1 87,5 %
06.08.2009 17,3 8,4 4,0 8,0   3 1020,9 56,0 45,0 1 68,9 %
07.08.2009 16,9 9,6 0,0 11,0   10 1020,2 62,0 22,5 1 87,5 %
08.08.2009 16,3 14,1 4,3 11,0   2 1014,4 87,0 45,0   65,9 %
09.08.2009 14,2 12,8 1,0 3,2   10 1016,8 91,0   1 92,5 %
10.08.2009 12,6 11,5 0,0 0,0 0,0 0 1012,1 93,0 45,0   67,5 %
11.08.2009 14,2 12,5 0,0 0,0 0,0 0 1007,3 92,0 112,5   67,5 %
12.08.2009 12,2 9,7 0,0 0,0 0,0 0 1008,0 85,0 45,0   65,0 %
13.08.2009 12,1 5,3 0,0 14,5 19,3 0 1008,0 63,0 0,0   57,5 %
14.08.2009 8,8 7,8 0,0 0,0 0,0 3 1012,1 93,0 135,0 1 70,0 %
15.08.2009 12,3 6,6 0,0 1,6 12,9 3 1005,0 68,0 90,0 1 72,5 %
16.08.2009 14,7 10,7 0,0 9,7 14,5 3 995,5 77,0 202,5 1 70,0 %
17.08.2009 13,1 11,4 0,0 4,8 19,3 2 1001,2 90,0 0,0   70,0 %
18.08.2009 8,6 7,0 4,1 0,0 0,0 0 1009,7 90,0 270,0   60,0 %
19.08.2009 13,3 3,7 0,0 0,0 9,7 0 1015,1 52,0 67,5   67,5 %
20.08.2009 17,1 7,2 0,0 0,0 8,0 0 1010,0 52,0 90,0   70,0 %
21.08.2009 14,7 10,5 0,0 9,7 14,5 0 1009,4 76,0 202,5   62,5 %
22.08.2009 11,1 8,5 0,0 0,0 9,7 0 1010,7 84,0 67,5   65,0 %
23.08.2009 11,2 10,0 0,0 0,0 3,2 3 1017,8 92,0 45,0 1 72,5 %
24.08.2009 16,7 1,9 0,0 3,2 17,7 0 1010,4 37,0 135,0   70,0 %
25.08.2009 17,1 4,1 0,0 4,8 22,5 0 1003,6 42,0 67,5   67,5 %
26.08.2009 11,3 9,8 0,0 0,0 0,0 0 1007,0 91,0 22,5   65,0 %
27.08.2009 14,4 11,9 13,3 1,6 12,9 2 1000,9 85,0 157,5   62,5 %
28.08.2009 13,7 11,4 5,6 0,0 8,0 0 997,2 86,0 112,5   65,0 %
29.08.2009 11,2 8,1 0,0 4,8 19,3 0 992,8 81,0 157,5   62,5 %
30.08.2009 11,1 8,3 0,0 3,2 11,3 2 1001,6 83,0 180,0   70,0 %
31.08.2009 12,8 7,9 0,0 8,0 16,1 0 1005,3 72,0 157,5   62,5 %
Avrg/Sum 13,5 8,9 45,2 4,3 10,0 2,5 1009,0 75,9 98,8 10 70,1 %